createdAt,value
2019-04-20T00:02:27.586Z,38.51
2019-04-20T00:05:01.635Z,38.49
2019-04-20T00:07:37.530Z,38.45
2019-04-20T00:10:16.531Z,38.39
2019-04-20T00:12:59.714Z,38.37
2019-04-20T00:15:21.988Z,38.39
2019-04-20T00:17:58.966Z,38.39
2019-04-20T00:20:34.366Z,38.33
2019-04-20T00:23:22.945Z,38.30
2019-04-20T00:26:17.312Z,38.31
2019-04-20T00:29:02.740Z,38.26
2019-04-20T00:31:36.521Z,38.23
2019-04-20T00:34:05.922Z,38.22
2019-04-20T00:36:30.744Z,38.20
2019-04-20T00:39:09.130Z,38.19
2019-04-20T00:41:49.028Z,38.18
2019-04-20T00:44:22.234Z,38.17
2019-04-20T00:47:04.607Z,38.13
2019-04-20T00:49:41.931Z,38.15
2019-04-20T00:52:31.045Z,38.08
2019-04-20T00:54:39.107Z,38.06
2019-04-20T00:57:22.457Z,38.04
2019-04-20T01:00:21.769Z,38.01
2019-04-20T01:02:36.145Z,37.99
2019-04-20T01:05:18.079Z,38.00
2019-04-20T01:07:53.536Z,37.98
2019-04-20T01:10:28.379Z,37.96
2019-04-20T01:13:06.754Z,37.90
2019-04-20T01:15:43.786Z,37.87
2019-04-20T01:18:13.591Z,37.88
2019-04-20T01:20:47.350Z,37.87
2019-04-20T01:23:24.343Z,37.85
2019-04-20T01:26:04.048Z,37.83
2019-04-20T01:28:46.792Z,37.81
2019-04-20T01:31:18.707Z,37.77
2019-04-20T01:33:55.085Z,37.76
2019-04-20T01:36:36.887Z,37.74
2019-04-20T01:39:07.544Z,37.71
2019-04-20T01:41:30.767Z,37.71
2019-04-20T01:44:05.098Z,37.61
2019-04-20T01:46:45.699Z,37.68
2019-04-20T01:49:18.207Z,37.64
2019-04-20T01:51:57.753Z,37.61
2019-04-20T01:54:48.485Z,37.58
2019-04-20T01:57:26.187Z,37.57
2019-04-20T02:00:11.086Z,37.55
2019-04-20T02:02:50.440Z,37.55
2019-04-20T02:05:24.736Z,37.52
2019-04-20T02:07:57.096Z,37.48
2019-04-20T02:10:40.376Z,37.46
2019-04-20T02:13:07.777Z,37.44
2019-04-20T02:15:48.538Z,37.40
2019-04-20T02:18:33.803Z,37.38
2019-04-20T02:21:09.828Z,37.35
2019-04-20T02:23:38.702Z,37.33
2019-04-20T02:26:05.072Z,37.29
2019-04-20T02:29:07.925Z,37.26
2019-04-20T02:31:55.619Z,37.23
2019-04-20T02:34:33.528Z,37.20
2019-04-20T02:39:46.791Z,37.16
2019-04-20T02:42:19.716Z,37.10
2019-04-20T02:45:05.175Z,37.07
2019-04-20T02:47:32.108Z,37.03
2019-04-20T02:53:05.267Z,36.99
2019-04-20T02:55:16.545Z,36.97
2019-04-20T02:57:53.020Z,36.92
2019-04-20T03:00:20.877Z,36.89
2019-04-20T03:02:42.979Z,36.87
2019-04-20T03:05:18.944Z,36.83
2019-04-20T03:07:57.525Z,36.84
2019-04-20T03:10:43.417Z,36.80
2019-04-20T03:13:14.165Z,36.76
2019-04-20T03:15:51.974Z,36.73
2019-04-20T03:18:19.743Z,36.71
2019-04-20T03:21:04.548Z,36.68
2019-04-20T03:23:42.802Z,36.66
2019-04-20T03:26:12.856Z,36.62
2019-04-20T03:29:01.563Z,36.60
2019-04-20T03:32:15.009Z,36.56
2019-04-20T03:34:48.128Z,36.53
2019-04-20T03:39:33.425Z,36.49
2019-04-20T03:41:52.040Z,36.46
2019-04-20T03:44:27.811Z,36.43
2019-04-20T03:47:04.618Z,36.38
2019-04-20T03:50:14.788Z,36.33
2019-04-20T03:52:43.157Z,36.33
2019-04-20T03:55:28.702Z,36.29
2019-04-20T03:58:12.785Z,36.25
2019-04-20T04:00:54.475Z,36.25
2019-04-20T04:06:14.776Z,36.18
2019-04-20T04:08:56.025Z,36.15
2019-04-20T04:11:31.260Z,36.15
2019-04-20T04:13:52.932Z,36.11
2019-04-20T04:16:32.891Z,36.06
2019-04-20T04:19:12.621Z,36.04
2019-04-20T04:21:53.734Z,35.97
2019-04-20T04:24:26.107Z,35.96
2019-04-20T04:27:01.899Z,35.92
2019-04-20T04:29:42.925Z,35.91
2019-04-20T04:32:33.172Z,35.89
2019-04-20T04:34:55.294Z,35.71
2019-04-20T04:37:24.324Z,35.82
2019-04-20T04:40:19.574Z,35.79
2019-04-20T04:42:42.339Z,35.78
2019-04-20T04:45:03.950Z,35.76
2019-04-20T04:47:32.723Z,35.71
2019-04-20T04:50:13.077Z,35.72
2019-04-20T04:52:52.214Z,35.66
2019-04-20T04:55:29.537Z,35.66
2019-04-20T04:57:53.779Z,35.64
2019-04-20T05:00:31.078Z,35.63
2019-04-20T05:03:23.293Z,35.60
2019-04-20T05:06:13.387Z,35.59
2019-04-20T05:08:36.832Z,35.58
2019-04-20T05:11:06.943Z,35.55
2019-04-20T05:13:48.891Z,35.49
2019-04-20T05:16:38.465Z,35.50
2019-04-20T05:19:13.424Z,35.48
2019-04-20T05:22:04.051Z,35.45
2019-04-20T05:25:03.489Z,35.43
2019-04-20T05:27:51.195Z,35.40
2019-04-20T05:30:09.846Z,35.36
2019-04-20T05:32:52.835Z,35.34
2019-04-20T05:35:39.213Z,35.31
2019-04-20T05:38:28.105Z,35.30
2019-04-20T05:40:51.440Z,35.31
2019-04-20T05:43:43.135Z,35.27
2019-04-20T05:46:23.600Z,35.27
2019-04-20T05:49:00.553Z,35.25
2019-04-20T05:51:36.452Z,35.23
2019-04-20T05:54:07.228Z,35.22
2019-04-20T05:56:56.272Z,35.21
2019-04-20T05:59:17.587Z,34.94
2019-04-20T06:01:58.805Z,35.24
2019-04-20T06:04:42.776Z,35.19
2019-04-20T06:07:09.733Z,35.16
2019-04-20T06:09:42.656Z,35.19
2019-04-20T06:15:04.585Z,35.23
2019-04-20T06:18:02.757Z,35.23
2019-04-20T06:20:45.288Z,35.29
2019-04-20T06:23:39.842Z,35.30
2019-04-20T06:26:26.867Z,35.31
2019-04-20T06:28:41.555Z,35.27
2019-04-20T06:31:26.721Z,35.28
2019-04-20T06:37:05.756Z,35.31
2019-04-20T06:39:44.779Z,35.14
2019-04-20T06:44:41.302Z,35.38
2019-04-20T06:47:17.673Z,35.27
2019-04-20T06:49:56.671Z,35.29
2019-04-20T06:52:36.996Z,35.30
2019-04-20T06:55:14.077Z,35.27
2019-04-20T06:57:54.860Z,35.27
2019-04-20T07:00:36.876Z,35.25
2019-04-20T07:03:04.678Z,35.30
2019-04-20T07:05:44.737Z,35.60
2019-04-20T07:08:34.623Z,35.32
2019-04-20T07:10:58.173Z,35.41
2019-04-20T07:13:24.004Z,35.25
2019-04-20T07:16:23.930Z,35.48
2019-04-20T07:19:17.557Z,35.52
2019-04-20T07:24:53.268Z,35.30
2019-04-20T07:27:24.430Z,35.37
2019-04-20T07:29:57.948Z,35.39
2019-04-20T07:32:38.690Z,35.27
2019-04-20T07:35:09.890Z,34.40
2019-04-20T07:40:26.874Z,34.61
2019-04-20T07:42:58.751Z,34.74
2019-04-20T07:45:33.235Z,34.96
2019-04-20T07:48:16.131Z,35.12
2019-04-20T07:50:40.771Z,35.11
2019-04-20T07:53:21.411Z,35.14
2019-04-20T07:55:57.993Z,35.49
2019-04-20T07:58:27.323Z,35.51
2019-04-20T08:01:22.298Z,35.40
2019-04-20T08:04:11.498Z,35.31
2019-04-20T08:06:38.627Z,35.42
2019-04-20T08:09:22.224Z,35.33
2019-04-20T08:12:11.748Z,35.38
2019-04-20T08:14:47.998Z,35.57
2019-04-20T08:17:46.497Z,35.88
2019-04-20T08:19:50.908Z,35.70
2019-04-20T08:22:35.584Z,35.72
2019-04-20T08:25:01.151Z,35.76
2019-04-20T08:27:27.646Z,36.78
2019-04-20T08:30:28.188Z,36.92
2019-04-20T08:33:04.256Z,36.00
2019-04-20T08:35:47.704Z,37.36
2019-04-20T08:38:58.325Z,35.80
2019-04-20T08:40:53.296Z,35.33
2019-04-20T08:43:42.560Z,35.83
2019-04-20T08:46:11.215Z,35.71
2019-04-20T08:48:46.766Z,36.33
2019-04-20T08:51:19.504Z,36.08
2019-04-20T08:53:51.860Z,35.55
2019-04-20T08:56:21.612Z,35.37
2019-04-20T08:58:46.138Z,35.16
2019-04-20T09:01:24.271Z,35.03
2019-04-20T09:04:05.402Z,34.98
2019-04-20T09:06:46.053Z,34.92
2019-04-20T09:09:40.590Z,34.88
2019-04-20T09:12:03.237Z,34.83
2019-04-20T09:14:20.906Z,34.75
2019-04-20T09:17:06.851Z,34.77
2019-04-20T09:19:46.974Z,34.66
2019-04-20T09:22:40.618Z,34.69
2019-04-20T09:28:16.111Z,34.72
2019-04-20T09:30:53.253Z,34.23
2019-04-20T09:33:46.598Z,33.83
2019-04-20T09:36:22.564Z,32.07
2019-04-20T09:39:15.017Z,30.41
2019-04-20T09:42:00.764Z,30.07
2019-04-20T09:44:34.977Z,27.87
2019-04-20T09:47:04.684Z,25.45
2019-04-20T09:49:49.232Z,27.10
2019-04-20T09:52:29.000Z,27.74
2019-04-20T09:55:03.122Z,27.52
2019-04-20T09:57:43.853Z,27.13
2019-04-20T10:00:15.535Z,27.15
2019-04-20T10:02:39.240Z,26.73
2019-04-20T10:05:13.587Z,26.80
2019-04-20T10:07:56.905Z,26.76
2019-04-20T10:10:31.289Z,27.04
2019-04-20T10:13:00.537Z,25.36
2019-04-20T10:15:35.383Z,25.15
2019-04-20T10:18:10.026Z,25.56
2019-04-20T10:20:45.222Z,25.97
2019-04-20T10:23:18.995Z,26.10
2019-04-20T10:25:52.766Z,26.25
2019-04-20T10:28:27.716Z,26.11
2019-04-20T10:31:02.303Z,26.97
2019-04-20T10:33:37.333Z,26.31
2019-04-20T10:36:23.641Z,26.10
2019-04-20T10:38:58.249Z,26.23
2019-04-20T10:41:39.956Z,26.49
2019-04-20T10:44:09.185Z,26.22
2019-04-20T10:46:43.280Z,27.73
2019-04-20T10:49:17.547Z,26.58
2019-04-20T10:51:51.774Z,26.93
2019-04-20T10:54:26.685Z,26.23
2019-04-20T10:57:01.496Z,26.03
2019-04-20T10:59:35.402Z,25.39
2019-04-20T11:02:10.049Z,26.11
2019-04-20T11:04:44.373Z,26.27
2019-04-20T11:07:18.717Z,26.09
2019-04-20T11:10:05.591Z,26.02
2019-04-20T11:12:28.490Z,25.59
2019-04-20T11:15:02.957Z,24.65
2019-04-20T11:17:37.398Z,24.74
2019-04-20T11:20:11.149Z,25.88
2019-04-20T11:22:46.283Z,25.45
2019-04-20T11:25:20.350Z,24.66
2019-04-20T11:27:54.418Z,24.98
2019-04-20T11:30:28.095Z,26.14
2019-04-20T11:33:02.378Z,25.87
2019-04-20T11:35:39.577Z,21.41
2019-04-20T11:38:14.757Z,18.25
2019-04-20T11:41:00.124Z,17.21
2019-04-20T11:43:23.953Z,16.84
2019-04-20T11:45:58.525Z,17.09
2019-04-20T11:48:33.715Z,17.96
2019-04-20T11:51:07.636Z,17.36
2019-04-20T11:53:42.681Z,17.62
2019-04-20T11:56:22.681Z,17.19
2019-04-20T11:58:53.148Z,17.44
2019-04-20T12:01:49.036Z,17.35
2019-04-20T12:04:26.127Z,16.40
2019-04-20T12:07:51.363Z,16.15
2019-04-20T12:10:26.461Z,16.23
2019-04-20T12:13:01.754Z,15.70
2019-04-20T12:15:38.807Z,15.68
2019-04-20T12:18:13.784Z,16.20
2019-04-20T12:20:48.783Z,16.63
2019-04-20T12:23:22.607Z,19.47
2019-04-20T12:25:56.512Z,16.47
2019-04-20T12:28:31.529Z,15.87
2019-04-20T12:31:11.989Z,16.38
2019-04-20T12:33:42.328Z,15.47
2019-04-20T12:36:16.495Z,14.99
2019-04-20T12:38:50.960Z,14.93
2019-04-20T12:41:34.458Z,14.88
2019-04-20T12:44:01.738Z,15.03
2019-04-20T12:46:36.034Z,15.10
2019-04-20T12:49:09.847Z,14.88
2019-04-20T12:51:50.655Z,14.79
2019-04-20T12:54:18.960Z,15.08
2019-04-20T12:56:53.049Z,14.98
2019-04-20T12:59:27.523Z,15.03
2019-04-20T13:02:01.671Z,14.44
2019-04-20T13:04:35.361Z,13.72
2019-04-20T13:07:10.083Z,13.93
2019-04-20T13:09:51.019Z,13.64
2019-04-20T13:12:47.203Z,14.30
2019-04-20T13:16:00.556Z,14.57
2019-04-20T13:18:53.088Z,14.40
2019-04-20T13:21:27.174Z,15.57
2019-04-20T13:24:00.946Z,15.04
2019-04-20T13:26:35.162Z,15.11
2019-04-20T13:29:09.110Z,15.27
2019-04-20T13:31:43.875Z,15.39
2019-04-20T13:34:17.762Z,16.40
2019-04-20T13:36:52.500Z,14.50
2019-04-20T13:39:26.858Z,14.78
2019-04-20T13:42:10.215Z,14.38
2019-04-20T13:44:36.916Z,13.52
2019-04-20T13:47:10.885Z,13.27
2019-04-20T13:49:45.177Z,14.05
2019-04-20T13:52:20.288Z,15.10
2019-04-20T13:54:54.671Z,16.61
2019-04-20T13:57:39.932Z,13.73
2019-04-20T14:00:31.665Z,13.69
2019-04-20T14:03:08.993Z,13.85
2019-04-20T14:05:42.836Z,14.31
2019-04-20T14:08:18.349Z,14.39
2019-04-20T14:10:53.352Z,18.44
2019-04-20T14:13:36.571Z,14.20
2019-04-20T14:16:03.172Z,13.95
2019-04-20T14:18:37.503Z,14.20
2019-04-20T14:21:12.207Z,14.36
2019-04-20T14:23:46.127Z,14.97
2019-04-20T14:26:20.994Z,15.77
2019-04-20T14:28:54.797Z,16.41
2019-04-20T14:31:30.008Z,18.26
2019-04-20T14:34:04.811Z,18.34
2019-04-20T14:36:39.087Z,16.38
2019-04-20T14:39:14.041Z,17.65
2019-04-20T14:41:48.631Z,16.10
2019-04-20T14:44:23.684Z,18.60
2019-04-20T14:46:57.999Z,18.61
2019-04-20T14:49:32.655Z,20.49
2019-04-20T14:52:08.066Z,18.93
2019-04-20T14:54:43.454Z,17.25
2019-04-20T14:57:17.391Z,18.55
2019-04-20T15:00:05.474Z,19.31
2019-04-20T15:02:40.361Z,19.02
2019-04-20T15:05:14.973Z,20.00
2019-04-20T15:07:48.914Z,19.67
2019-04-20T15:10:22.831Z,19.68
2019-04-20T15:13:01.039Z,21.12
2019-04-20T15:15:32.559Z,21.26
2019-04-20T15:18:09.501Z,21.16
2019-04-20T15:20:47.770Z,21.84
2019-04-20T15:23:23.923Z,21.99
2019-04-20T15:25:58.203Z,22.12
2019-04-20T15:28:32.501Z,22.54
2019-04-20T15:31:08.020Z,22.30
2019-04-20T15:33:43.140Z,23.09
2019-04-20T15:36:18.036Z,21.98
2019-04-20T15:38:53.249Z,23.62
2019-04-20T15:41:27.497Z,23.61
2019-04-20T15:44:02.076Z,23.57
2019-04-20T15:46:37.060Z,22.21
2019-04-20T15:49:13.373Z,23.85
2019-04-20T15:51:47.866Z,22.43
2019-04-20T15:54:23.174Z,22.13
2019-04-20T15:57:02.446Z,21.99
2019-04-20T15:59:32.673Z,22.08
2019-04-20T16:02:13.889Z,22.19
2019-04-20T16:04:56.632Z,22.34
2019-04-20T16:07:37.931Z,23.34
2019-04-20T16:10:07.318Z,18.79
2019-04-20T16:12:42.635Z,20.37
2019-04-20T16:15:17.761Z,20.99
2019-04-20T16:17:53.180Z,21.72
2019-04-20T16:20:28.857Z,22.15
2019-04-20T16:23:02.779Z,21.86
2019-04-20T16:25:47.787Z,22.13
2019-04-20T16:28:21.737Z,21.89
2019-04-20T16:30:55.919Z,22.05
2019-04-20T16:33:30.516Z,22.31
2019-04-20T16:36:04.756Z,22.76
2019-04-20T16:38:40.182Z,22.72
2019-04-20T16:41:14.672Z,22.67
2019-04-20T16:43:49.986Z,23.02
2019-04-20T16:46:25.853Z,23.11
2019-04-20T16:49:01.047Z,23.17
2019-04-20T16:51:35.060Z,23.47
2019-04-20T16:54:10.095Z,23.56
2019-04-20T16:56:44.552Z,23.56
2019-04-20T16:59:19.629Z,23.64
2019-04-20T17:01:54.039Z,23.77
2019-04-20T17:04:28.918Z,23.25
2019-04-20T17:07:20.779Z,23.37
2019-04-20T17:09:55.832Z,23.56
2019-04-20T17:12:30.100Z,23.11
2019-04-20T17:15:05.440Z,23.22
2019-04-20T17:17:39.922Z,23.10
2019-04-20T17:20:13.835Z,23.03
2019-04-20T17:22:48.645Z,23.41
2019-04-20T17:25:23.950Z,23.73
2019-04-20T17:28:07.269Z,23.58
2019-04-20T17:31:01.144Z,24.12
2019-04-20T17:34:02.628Z,24.39
2019-04-20T17:36:31.784Z,24.05
2019-04-20T17:39:10.282Z,24.25
2019-04-20T17:42:00.578Z,24.11
2019-04-20T17:44:34.219Z,24.48
2019-04-20T17:47:05.331Z,24.06
2019-04-20T17:49:41.293Z,24.10
2019-04-20T17:52:28.084Z,23.70
2019-04-20T17:54:47.438Z,23.81
2019-04-20T17:57:21.556Z,23.93
2019-04-20T18:00:11.638Z,23.37
2019-04-20T18:03:06.041Z,21.65
2019-04-20T18:06:06.233Z,22.37
2019-04-20T18:08:42.480Z,22.67
2019-04-20T18:11:05.691Z,24.10
2019-04-20T18:13:34.234Z,24.10
2019-04-20T18:16:36.550Z,24.10
2019-04-20T18:19:13.082Z,24.27
2019-04-20T18:21:43.576Z,24.18
2019-04-20T18:24:42.345Z,24.43
2019-04-20T18:27:14.192Z,24.15
2019-04-20T18:29:50.294Z,24.25
2019-04-20T18:32:29.518Z,24.38
2019-04-20T18:35:28.879Z,24.74
2019-04-20T18:38:07.694Z,24.50
2019-04-20T18:40:49.318Z,24.21
2019-04-20T18:43:20.479Z,24.24
2019-04-20T18:46:07.897Z,24.28
2019-04-20T18:48:49.605Z,24.33
2019-04-20T18:51:01.779Z,24.77
2019-04-20T18:53:41.133Z,24.28
2019-04-20T18:56:16.997Z,24.13
2019-04-20T18:58:51.179Z,24.06
2019-04-20T19:01:31.923Z,24.01
2019-04-20T19:04:01.624Z,24.04
2019-04-20T19:06:35.971Z,24.21
2019-04-20T19:09:16.773Z,24.70
2019-04-20T19:11:53.456Z,25.32
2019-04-20T19:14:40.075Z,24.89
2019-04-20T19:17:40.270Z,24.91
2019-04-20T19:20:07.001Z,25.16
2019-04-20T19:22:44.010Z,25.57
2019-04-20T19:25:25.611Z,26.10
2019-04-20T19:27:55.973Z,25.41
2019-04-20T19:30:37.447Z,25.22
2019-04-20T19:33:20.575Z,25.25
2019-04-20T19:35:50.132Z,25.06
2019-04-20T19:38:21.901Z,25.07
2019-04-20T19:40:58.308Z,25.18
2019-04-20T19:43:33.540Z,25.05
2019-04-20T19:46:39.323Z,25.00
2019-04-20T19:48:51.502Z,25.71
2019-04-20T19:51:38.544Z,25.72
2019-04-20T19:54:19.705Z,25.72
2019-04-20T19:56:47.043Z,27.04
2019-04-20T19:59:18.653Z,25.75
2019-04-20T20:01:40.345Z,27.08
2019-04-20T20:04:15.664Z,27.91
2019-04-20T20:06:56.210Z,26.92
2019-04-20T20:09:25.918Z,26.86
2019-04-20T20:12:04.926Z,27.07
2019-04-20T20:14:39.727Z,26.47
2019-04-20T20:17:32.767Z,26.94
2019-04-20T20:20:16.401Z,26.70
2019-04-20T20:22:32.243Z,26.32
2019-04-20T20:24:57.757Z,26.15
2019-04-20T20:27:45.052Z,26.24
2019-04-20T20:30:21.553Z,25.96
2019-04-20T20:32:59.488Z,25.99
2019-04-20T20:35:23.569Z,26.04
2019-04-20T20:37:58.855Z,26.15
2019-04-20T20:40:36.594Z,26.85
2019-04-20T20:43:17.580Z,27.30
2019-04-20T20:45:58.108Z,26.71
2019-04-20T20:48:34.008Z,26.55
2019-04-20T20:51:12.061Z,26.52
2019-04-20T20:53:49.878Z,26.53
2019-04-20T20:56:15.092Z,26.69
2019-04-20T20:58:53.488Z,26.80
2019-04-20T21:01:23.691Z,26.81
2019-04-20T21:03:54.638Z,26.85
2019-04-20T21:06:28.698Z,27.04
2019-04-20T21:09:03.716Z,27.18
2019-04-20T21:11:38.141Z,27.22
2019-04-20T21:14:13.534Z,27.27
2019-04-20T21:16:57.598Z,27.38
2019-04-20T21:19:41.861Z,27.34
2019-04-20T21:22:06.904Z,27.57
2019-04-20T21:24:39.892Z,27.57
2019-04-20T21:27:17.031Z,27.66
2019-04-20T21:29:53.352Z,27.59
2019-04-20T21:32:26.227Z,27.67
2019-04-20T21:35:03.048Z,27.68
2019-04-20T21:37:36.917Z,27.76
2019-04-20T21:40:22.768Z,27.86
2019-04-20T21:42:52.499Z,27.89
2019-04-20T21:45:27.374Z,27.96
2019-04-20T21:48:03.385Z,27.93
2019-04-20T21:50:53.475Z,27.68
2019-04-20T21:53:17.866Z,27.95
2019-04-20T21:55:46.027Z,27.99
2019-04-20T21:58:29.653Z,27.94
2019-04-20T22:01:09.237Z,28.08
2019-04-20T22:03:34.331Z,28.05
2019-04-20T22:06:08.924Z,28.10
2019-04-20T22:08:49.587Z,28.21
2019-04-20T22:11:19.860Z,28.18
2019-04-20T22:13:54.600Z,28.25
2019-04-20T22:16:36.409Z,28.34
2019-04-20T22:19:17.239Z,28.36
2019-04-20T22:21:54.360Z,28.38
2019-04-20T22:24:33.128Z,28.36
2019-04-20T22:27:03.334Z,28.44
2019-04-20T22:29:26.053Z,28.39
2019-04-20T22:32:06.276Z,28.49
2019-04-20T22:34:35.349Z,28.53
2019-04-20T22:37:15.308Z,28.59
2019-04-20T22:39:52.345Z,28.40
2019-04-20T22:42:23.581Z,28.32
2019-04-20T22:45:03.800Z,28.44
2019-04-20T22:47:34.388Z,28.51
2019-04-20T22:50:38.349Z,28.58
2019-04-20T22:52:55.275Z,28.60
2019-04-20T22:55:45.589Z,28.61
2019-04-20T22:58:04.996Z,28.71
2019-04-20T23:00:40.697Z,28.73
2019-04-20T23:03:07.187Z,28.74
2019-04-20T23:05:41.142Z,28.70
2019-04-20T23:08:14.988Z,28.77
2019-04-20T23:10:49.790Z,28.75
2019-04-20T23:13:30.413Z,28.63
2019-04-20T23:16:01.979Z,28.61
2019-04-20T23:18:34.489Z,28.62
2019-04-20T23:21:12.328Z,28.72
2019-04-20T23:23:43.739Z,28.59
2019-04-20T23:26:27.838Z,28.27
2019-04-20T23:28:56.095Z,28.08
2019-04-20T23:31:30.128Z,27.89
2019-04-20T23:34:12.805Z,27.77
2019-04-20T23:36:44.137Z,27.67
2019-04-20T23:39:14.925Z,27.54
2019-04-20T23:41:55.690Z,27.48
2019-04-20T23:44:58.219Z,27.41
2019-04-20T23:47:54.069Z,27.40
2019-04-20T23:50:44.889Z,27.33
2019-04-20T23:53:19.462Z,27.29
2019-04-20T23:55:36.029Z,27.24
2019-04-20T23:58:11.228Z,27.21
